sensor_id;sensor_type;location;lat;lon;timestamp;P1;durP1;ratioP1;P2;durP2;ratioP2
3343;SDS011;1685;53.104;8.228;2023-07-13T00:00:35;7.00;;;5.63;;
3343;SDS011;1685;53.104;8.228;2023-07-13T00:03:04;7.13;;;5.10;;
3343;SDS011;1685;53.104;8.228;2023-07-13T00:05:31;6.93;;;6.03;;
3343;SDS011;1685;53.104;8.228;2023-07-13T00:07:58;6.23;;;5.40;;
3343;SDS011;1685;53.104;8.228;2023-07-13T00:10:26;10.50;;;5.60;;
3343;SDS011;1685;53.104;8.228;2023-07-13T00:12:53;6.17;;;5.57;;
3343;SDS011;1685;53.104;8.228;2023-07-13T00:15:21;8.07;;;5.70;;
3343;SDS011;1685;53.104;8.228;2023-07-13T00:17:50;6.93;;;5.40;;
3343;SDS011;1685;53.104;8.228;2023-07-13T00:20:19;6.67;;;5.73;;
3343;SDS011;1685;53.104;8.228;2023-07-13T00:22:46;11.70;;;5.97;;
3343;SDS011;1685;53.104;8.228;2023-07-13T00:25:14;6.07;;;5.30;;
3343;SDS011;1685;53.104;8.228;2023-07-13T00:27:41;6.07;;;5.00;;
3343;SDS011;1685;53.104;8.228;2023-07-13T00:30:09;12.17;;;5.27;;
3343;SDS011;1685;53.104;8.228;2023-07-13T00:32:37;4.97;;;4.47;;
3343;SDS011;1685;53.104;8.228;2023-07-13T00:35:04;6.50;;;5.13;;
3343;SDS011;1685;53.104;8.228;2023-07-13T00:37:33;6.20;;;5.43;;
3343;SDS011;1685;53.104;8.228;2023-07-13T00:40:00;5.83;;;4.87;;
3343;SDS011;1685;53.104;8.228;2023-07-13T00:42:28;5.23;;;4.83;;
3343;SDS011;1685;53.104;8.228;2023-07-13T00:45:02;7.53;;;4.90;;
3343;SDS011;1685;53.104;8.228;2023-07-13T00:47:30;12.97;;;5.50;;
3343;SDS011;1685;53.104;8.228;2023-07-13T00:49:58;8.73;;;5.70;;
3343;SDS011;1685;53.104;8.228;2023-07-13T00:52:25;12.37;;;6.03;;
3343;SDS011;1685;53.104;8.228;2023-07-13T00:54:54;6.50;;;5.20;;
3343;SDS011;1685;53.104;8.228;2023-07-13T00:57:22;16.43;;;5.27;;
3343;SDS011;1685;53.104;8.228;2023-07-13T00:59:54;5.57;;;5.07;;
3343;SDS011;1685;53.104;8.228;2023-07-13T01:02:24;6.13;;;4.27;;
3343;SDS011;1685;53.104;8.228;2023-07-13T01:04:52;6.90;;;5.30;;
3343;SDS011;1685;53.104;8.228;2023-07-13T01:07:20;6.20;;;5.60;;
3343;SDS011;1685;53.104;8.228;2023-07-13T01:09:47;6.97;;;5.03;;
3343;SDS011;1685;53.104;8.228;2023-07-13T01:12:16;9.10;;;6.03;;
3343;SDS011;1685;53.104;8.228;2023-07-13T01:14:44;7.47;;;5.00;;
3343;SDS011;1685;53.104;8.228;2023-07-13T01:17:11;6.93;;;4.97;;
3343;SDS011;1685;53.104;8.228;2023-07-13T01:19:41;6.33;;;4.73;;
3343;SDS011;1685;53.104;8.228;2023-07-13T01:22:12;9.47;;;6.80;;
3343;SDS011;1685;53.104;8.228;2023-07-13T01:24:41;14.90;;;6.20;;
3343;SDS011;1685;53.104;8.228;2023-07-13T01:27:11;7.63;;;5.67;;
3343;SDS011;1685;53.104;8.228;2023-07-13T01:29:39;8.53;;;5.80;;
3343;SDS011;1685;53.104;8.228;2023-07-13T01:32:08;11.10;;;6.17;;
3343;SDS011;1685;53.104;8.228;2023-07-13T01:34:36;11.83;;;5.60;;
3343;SDS011;1685;53.104;8.228;2023-07-13T01:37:07;11.13;;;7.10;;
3343;SDS011;1685;53.104;8.228;2023-07-13T01:39:36;11.27;;;6.43;;
3343;SDS011;1685;53.104;8.228;2023-07-13T01:42:03;8.20;;;5.70;;
3343;SDS011;1685;53.104;8.228;2023-07-13T01:44:30;13.53;;;5.60;;
3343;SDS011;1685;53.104;8.228;2023-07-13T01:46:57;12.43;;;6.00;;
3343;SDS011;1685;53.104;8.228;2023-07-13T01:49:25;13.50;;;6.40;;
3343;SDS011;1685;53.104;8.228;2023-07-13T01:51:52;10.10;;;5.80;;
3343;SDS011;1685;53.104;8.228;2023-07-13T01:54:19;18.20;;;7.13;;
3343;SDS011;1685;53.104;8.228;2023-07-13T01:56:47;13.67;;;6.83;;
3343;SDS011;1685;53.104;8.228;2023-07-13T01:59:14;12.67;;;6.50;;
3343;SDS011;1685;53.104;8.228;2023-07-13T02:01:41;6.77;;;5.80;;
3343;SDS011;1685;53.104;8.228;2023-07-13T02:04:08;19.53;;;6.17;;
3343;SDS011;1685;53.104;8.228;2023-07-13T02:06:36;20.40;;;8.20;;
3343;SDS011;1685;53.104;8.228;2023-07-13T02:09:03;6.70;;;5.23;;
3343;SDS011;1685;53.104;8.228;2023-07-13T02:11:30;8.60;;;6.17;;
3343;SDS011;1685;53.104;8.228;2023-07-13T02:14:00;7.90;;;7.10;;
3343;SDS011;1685;53.104;8.228;2023-07-13T02:16:28;11.07;;;8.40;;
3343;SDS011;1685;53.104;8.228;2023-07-13T02:18:55;25.03;;;11.77;;
3343;SDS011;1685;53.104;8.228;2023-07-13T02:21:22;22.33;;;9.97;;
3343;SDS011;1685;53.104;8.228;2023-07-13T02:23:49;16.23;;;8.50;;
3343;SDS011;1685;53.104;8.228;2023-07-13T02:26:17;13.60;;;8.10;;
3343;SDS011;1685;53.104;8.228;2023-07-13T02:28:45;13.30;;;7.73;;
3343;SDS011;1685;53.104;8.228;2023-07-13T02:31:14;15.43;;;7.37;;
3343;SDS011;1685;53.104;8.228;2023-07-13T02:33:41;9.03;;;6.77;;
3343;SDS011;1685;53.104;8.228;2023-07-13T02:36:08;16.33;;;7.00;;
3343;SDS011;1685;53.104;8.228;2023-07-13T02:38:36;9.37;;;6.90;;
3343;SDS011;1685;53.104;8.228;2023-07-13T02:41:03;13.37;;;6.30;;
3343;SDS011;1685;53.104;8.228;2023-07-13T02:43:31;12.17;;;6.70;;
3343;SDS011;1685;53.104;8.228;2023-07-13T02:45:58;13.03;;;6.63;;
3343;SDS011;1685;53.104;8.228;2023-07-13T02:48:30;9.13;;;5.37;;
3343;SDS011;1685;53.104;8.228;2023-07-13T02:50:57;13.53;;;6.67;;
3343;SDS011;1685;53.104;8.228;2023-07-13T02:53:24;10.30;;;5.93;;
3343;SDS011;1685;53.104;8.228;2023-07-13T02:55:52;11.60;;;6.50;;
3343;SDS011;1685;53.104;8.228;2023-07-13T02:58:19;12.20;;;6.10;;
3343;SDS011;1685;53.104;8.228;2023-07-13T03:00:46;13.50;;;6.10;;
3343;SDS011;1685;53.104;8.228;2023-07-13T03:03:15;11.23;;;5.20;;
3343;SDS011;1685;53.104;8.228;2023-07-13T03:05:44;14.73;;;6.10;;
3343;SDS011;1685;53.104;8.228;2023-07-13T03:08:15;14.50;;;6.10;;
3343;SDS011;1685;53.104;8.228;2023-07-13T03:10:43;5.60;;;4.97;;
3343;SDS011;1685;53.104;8.228;2023-07-13T03:13:10;7.83;;;4.90;;
3343;SDS011;1685;53.104;8.228;2023-07-13T03:15:37;7.00;;;4.60;;
3343;SDS011;1685;53.104;8.228;2023-07-13T03:18:04;15.70;;;5.60;;
3343;SDS011;1685;53.104;8.228;2023-07-13T03:20:32;13.10;;;4.80;;
3343;SDS011;1685;53.104;8.228;2023-07-13T03:23:00;10.07;;;5.20;;
3343;SDS011;1685;53.104;8.228;2023-07-13T03:25:28;8.57;;;5.13;;
3343;SDS011;1685;53.104;8.228;2023-07-13T03:27:55;11.77;;;4.67;;
3343;SDS011;1685;53.104;8.228;2023-07-13T03:30:22;6.47;;;4.37;;
3343;SDS011;1685;53.104;8.228;2023-07-13T03:32:49;10.00;;;4.30;;
3343;SDS011;1685;53.104;8.228;2023-07-13T03:35:16;9.53;;;5.20;;
3343;SDS011;1685;53.104;8.228;2023-07-13T03:37:43;11.40;;;5.20;;
3343;SDS011;1685;53.104;8.228;2023-07-13T03:40:12;11.53;;;4.13;;
3343;SDS011;1685;53.104;8.228;2023-07-13T03:42:39;10.80;;;4.73;;
3343;SDS011;1685;53.104;8.228;2023-07-13T03:45:07;10.10;;;4.40;;
3343;SDS011;1685;53.104;8.228;2023-07-13T03:47:34;13.17;;;5.07;;
3343;SDS011;1685;53.104;8.228;2023-07-13T03:50:01;9.77;;;3.87;;
3343;SDS011;1685;53.104;8.228;2023-07-13T03:52:29;10.23;;;4.00;;
3343;SDS011;1685;53.104;8.228;2023-07-13T03:54:56;18.67;;;4.67;;
3343;SDS011;1685;53.104;8.228;2023-07-13T03:57:25;12.97;;;4.47;;
3343;SDS011;1685;53.104;8.228;2023-07-13T03:59:52;14.00;;;4.20;;
3343;SDS011;1685;53.104;8.228;2023-07-13T04:02:19;16.23;;;4.60;;
3343;SDS011;1685;53.104;8.228;2023-07-13T04:04:46;12.90;;;4.20;;
3343;SDS011;1685;53.104;8.228;2023-07-13T04:07:13;14.80;;;4.50;;
3343;SDS011;1685;53.104;8.228;2023-07-13T04:09:40;10.00;;;3.97;;
3343;SDS011;1685;53.104;8.228;2023-07-13T04:12:07;8.97;;;3.27;;
3343;SDS011;1685;53.104;8.228;2023-07-13T04:14:36;11.37;;;3.70;;
3343;SDS011;1685;53.104;8.228;2023-07-13T04:17:04;9.43;;;3.93;;
3343;SDS011;1685;53.104;8.228;2023-07-13T04:19:31;7.97;;;3.67;;
3343;SDS011;1685;53.104;8.228;2023-07-13T04:21:58;16.23;;;4.03;;
3343;SDS011;1685;53.104;8.228;2023-07-13T04:24:25;11.13;;;4.00;;
3343;SDS011;1685;53.104;8.228;2023-07-13T04:26:52;18.77;;;3.83;;
3343;SDS011;1685;53.104;8.228;2023-07-13T04:29:19;9.03;;;4.00;;
3343;SDS011;1685;53.104;8.228;2023-07-13T04:31:48;13.70;;;4.07;;
3343;SDS011;1685;53.104;8.228;2023-07-13T04:34:15;13.63;;;4.40;;
3343;SDS011;1685;53.104;8.228;2023-07-13T04:36:42;12.97;;;3.93;;
3343;SDS011;1685;53.104;8.228;2023-07-13T04:39:09;9.87;;;3.30;;
3343;SDS011;1685;53.104;8.228;2023-07-13T04:41:36;8.90;;;3.80;;
3343;SDS011;1685;53.104;8.228;2023-07-13T04:44:03;11.50;;;3.83;;
3343;SDS011;1685;53.104;8.228;2023-07-13T04:46:30;8.87;;;3.93;;
3343;SDS011;1685;53.104;8.228;2023-07-13T04:48:59;10.23;;;3.73;;
3343;SDS011;1685;53.104;8.228;2023-07-13T04:51:28;16.20;;;4.50;;
3343;SDS011;1685;53.104;8.228;2023-07-13T04:53:55;13.77;;;3.80;;
3343;SDS011;1685;53.104;8.228;2023-07-13T04:56:22;7.30;;;3.53;;
3343;SDS011;1685;53.104;8.228;2023-07-13T04:58:49;7.00;;;3.70;;
3343;SDS011;1685;53.104;8.228;2023-07-13T05:01:16;9.83;;;3.80;;
3343;SDS011;1685;53.104;8.228;2023-07-13T05:03:45;17.23;;;4.33;;
3343;SDS011;1685;53.104;8.228;2023-07-13T05:06:13;16.73;;;4.00;;
3343;SDS011;1685;53.104;8.228;2023-07-13T05:08:40;14.70;;;5.27;;
3343;SDS011;1685;53.104;8.228;2023-07-13T05:11:07;26.57;;;4.37;;
3343;SDS011;1685;53.104;8.228;2023-07-13T05:13:34;13.97;;;4.03;;
3343;SDS011;1685;53.104;8.228;2023-07-13T05:16:03;18.80;;;4.70;;
3343;SDS011;1685;53.104;8.228;2023-07-13T05:18:32;12.87;;;4.43;;
3343;SDS011;1685;53.104;8.228;2023-07-13T05:21:00;14.73;;;4.10;;
3343;SDS011;1685;53.104;8.228;2023-07-13T05:23:30;26.40;;;5.40;;
3343;SDS011;1685;53.104;8.228;2023-07-13T05:25:57;8.30;;;3.70;;
3343;SDS011;1685;53.104;8.228;2023-07-13T05:28:24;8.87;;;3.63;;
3343;SDS011;1685;53.104;8.228;2023-07-13T05:30:52;5.37;;;3.60;;
3343;SDS011;1685;53.104;8.228;2023-07-13T05:33:19;10.67;;;3.80;;
3343;SDS011;1685;53.104;8.228;2023-07-13T05:35:47;14.30;;;4.30;;
3343;SDS011;1685;53.104;8.228;2023-07-13T05:38:14;23.97;;;6.00;;
3343;SDS011;1685;53.104;8.228;2023-07-13T05:40:43;10.47;;;4.07;;
3343;SDS011;1685;53.104;8.228;2023-07-13T05:43:10;15.10;;;3.67;;
3343;SDS011;1685;53.104;8.228;2023-07-13T05:45:38;11.60;;;3.97;;
3343;SDS011;1685;53.104;8.228;2023-07-13T05:48:05;17.87;;;4.13;;
3343;SDS011;1685;53.104;8.228;2023-07-13T05:50:32;17.53;;;5.17;;
3343;SDS011;1685;53.104;8.228;2023-07-13T05:52:59;12.27;;;4.60;;
3343;SDS011;1685;53.104;8.228;2023-07-13T05:55:26;19.33;;;5.17;;
3343;SDS011;1685;53.104;8.228;2023-07-13T05:57:55;17.10;;;4.70;;
3343;SDS011;1685;53.104;8.228;2023-07-13T06:00:23;11.80;;;4.00;;
3343;SDS011;1685;53.104;8.228;2023-07-13T06:02:50;7.83;;;4.57;;
3343;SDS011;1685;53.104;8.228;2023-07-13T06:05:17;12.57;;;4.27;;
3343;SDS011;1685;53.104;8.228;2023-07-13T06:07:44;12.67;;;4.93;;
3343;SDS011;1685;53.104;8.228;2023-07-13T06:10:11;17.30;;;4.50;;
3343;SDS011;1685;53.104;8.228;2023-07-13T06:12:38;15.63;;;4.73;;
3343;SDS011;1685;53.104;8.228;2023-07-13T06:15:07;14.20;;;4.60;;
3343;SDS011;1685;53.104;8.228;2023-07-13T06:17:34;14.93;;;4.37;;
3343;SDS011;1685;53.104;8.228;2023-07-13T06:20:02;7.30;;;4.10;;
3343;SDS011;1685;53.104;8.228;2023-07-13T06:22:29;7.83;;;4.00;;
3343;SDS011;1685;53.104;8.228;2023-07-13T06:24:56;12.80;;;4.90;;
3343;SDS011;1685;53.104;8.228;2023-07-13T06:27:23;13.87;;;4.20;;
3343;SDS011;1685;53.104;8.228;2023-07-13T06:29:50;6.80;;;4.27;;
3343;SDS011;1685;53.104;8.228;2023-07-13T06:32:19;9.67;;;4.40;;
3343;SDS011;1685;53.104;8.228;2023-07-13T06:34:45;9.93;;;4.70;;
3343;SDS011;1685;53.104;8.228;2023-07-13T06:37:12;13.60;;;5.10;;
3343;SDS011;1685;53.104;8.228;2023-07-13T06:39:40;12.10;;;5.17;;
3343;SDS011;1685;53.104;8.228;2023-07-13T06:42:07;15.10;;;4.60;;
3343;SDS011;1685;53.104;8.228;2023-07-13T06:44:34;8.00;;;4.27;;
3343;SDS011;1685;53.104;8.228;2023-07-13T06:47:01;14.03;;;4.13;;
3343;SDS011;1685;53.104;8.228;2023-07-13T06:49:30;8.43;;;3.83;;
3343;SDS011;1685;53.104;8.228;2023-07-13T06:51:57;12.23;;;3.70;;
3343;SDS011;1685;53.104;8.228;2023-07-13T06:54:24;5.80;;;4.00;;
3343;SDS011;1685;53.104;8.228;2023-07-13T06:56:51;14.30;;;4.07;;
3343;SDS011;1685;53.104;8.228;2023-07-13T06:59:18;9.77;;;4.73;;
3343;SDS011;1685;53.104;8.228;2023-07-13T07:01:45;12.40;;;4.30;;
3343;SDS011;1685;53.104;8.228;2023-07-13T07:04:13;13.00;;;3.80;;
3343;SDS011;1685;53.104;8.228;2023-07-13T07:06:41;7.33;;;3.97;;
3343;SDS011;1685;53.104;8.228;2023-07-13T07:09:08;12.40;;;4.53;;
3343;SDS011;1685;53.104;8.228;2023-07-13T07:11:35;16.07;;;4.60;;
3343;SDS011;1685;53.104;8.228;2023-07-13T07:14:02;15.43;;;5.77;;
3343;SDS011;1685;53.104;8.228;2023-07-13T07:16:29;12.07;;;3.77;;
3343;SDS011;1685;53.104;8.228;2023-07-13T07:18:56;10.40;;;4.90;;
3343;SDS011;1685;53.104;8.228;2023-07-13T07:21:23;12.57;;;4.97;;
3343;SDS011;1685;53.104;8.228;2023-07-13T07:23:52;9.40;;;4.10;;
3343;SDS011;1685;53.104;8.228;2023-07-13T07:26:19;9.03;;;4.10;;
3343;SDS011;1685;53.104;8.228;2023-07-13T07:28:46;13.23;;;3.50;;
3343;SDS011;1685;53.104;8.228;2023-07-13T07:31:13;11.97;;;4.20;;
3343;SDS011;1685;53.104;8.228;2023-07-13T07:33:41;15.60;;;4.27;;
3343;SDS011;1685;53.104;8.228;2023-07-13T07:36:08;9.20;;;4.03;;
3343;SDS011;1685;53.104;8.228;2023-07-13T07:38:35;9.50;;;4.20;;
3343;SDS011;1685;53.104;8.228;2023-07-13T07:41:04;6.43;;;3.50;;
3343;SDS011;1685;53.104;8.228;2023-07-13T07:43:31;10.03;;;4.07;;
3343;SDS011;1685;53.104;8.228;2023-07-13T07:45:58;11.13;;;3.83;;
3343;SDS011;1685;53.104;8.228;2023-07-13T07:48:26;10.70;;;3.73;;
3343;SDS011;1685;53.104;8.228;2023-07-13T07:50:53;12.17;;;3.90;;
3343;SDS011;1685;53.104;8.228;2023-07-13T07:53:20;11.33;;;4.63;;
3343;SDS011;1685;53.104;8.228;2023-07-13T07:55:47;8.50;;;4.37;;
3343;SDS011;1685;53.104;8.228;2023-07-13T07:58:16;8.57;;;3.57;;
3343;SDS011;1685;53.104;8.228;2023-07-13T08:00:43;5.73;;;3.10;;
3343;SDS011;1685;53.104;8.228;2023-07-13T08:03:10;6.30;;;4.03;;
3343;SDS011;1685;53.104;8.228;2023-07-13T08:05:37;11.33;;;3.63;;
3343;SDS011;1685;53.104;8.228;2023-07-13T08:08:04;9.40;;;3.20;;
3343;SDS011;1685;53.104;8.228;2023-07-13T08:10:31;15.53;;;4.10;;
3343;SDS011;1685;53.104;8.228;2023-07-13T08:12:58;11.23;;;3.43;;
3343;SDS011;1685;53.104;8.228;2023-07-13T08:15:26;7.80;;;3.60;;
3343;SDS011;1685;53.104;8.228;2023-07-13T08:17:54;8.77;;;3.60;;
3343;SDS011;1685;53.104;8.228;2023-07-13T08:20:21;12.13;;;4.07;;
3343;SDS011;1685;53.104;8.228;2023-07-13T08:22:48;11.33;;;3.33;;
3343;SDS011;1685;53.104;8.228;2023-07-13T08:25:15;8.30;;;3.07;;
3343;SDS011;1685;53.104;8.228;2023-07-13T08:27:42;17.33;;;3.40;;
3343;SDS011;1685;53.104;8.228;2023-07-13T08:30:10;4.70;;;2.70;;
3343;SDS011;1685;53.104;8.228;2023-07-13T08:32:38;9.43;;;3.60;;
3343;SDS011;1685;53.104;8.228;2023-07-13T08:35:05;8.17;;;2.97;;
3343;SDS011;1685;53.104;8.228;2023-07-13T08:37:32;8.70;;;2.80;;
3343;SDS011;1685;53.104;8.228;2023-07-13T08:39:59;3.37;;;2.67;;
3343;SDS011;1685;53.104;8.228;2023-07-13T08:42:31;6.00;;;2.63;;
3343;SDS011;1685;53.104;8.228;2023-07-13T08:45:04;6.53;;;2.73;;
3343;SDS011;1685;53.104;8.228;2023-07-13T08:47:42;6.23;;;2.90;;
3343;SDS011;1685;53.104;8.228;2023-07-13T08:50:15;3.80;;;2.60;;
3343;SDS011;1685;53.104;8.228;2023-07-13T08:52:45;8.70;;;2.50;;
3343;SDS011;1685;53.104;8.228;2023-07-13T08:55:13;3.57;;;2.00;;
3343;SDS011;1685;53.104;8.228;2023-07-13T08:57:42;6.10;;;2.50;;
3343;SDS011;1685;53.104;8.228;2023-07-13T09:00:11;5.70;;;2.10;;
3343;SDS011;1685;53.104;8.228;2023-07-13T09:02:42;5.73;;;2.20;;
3343;SDS011;1685;53.104;8.228;2023-07-13T09:05:13;7.37;;;2.20;;
3343;SDS011;1685;53.104;8.228;2023-07-13T09:07:53;7.03;;;2.10;;
3343;SDS011;1685;53.104;8.228;2023-07-13T09:10:31;7.73;;;2.10;;
3343;SDS011;1685;53.104;8.228;2023-07-13T09:13:07;6.20;;;2.40;;
3343;SDS011;1685;53.104;8.228;2023-07-13T09:15:41;2.90;;;1.80;;
3343;SDS011;1685;53.104;8.228;2023-07-13T09:18:12;5.50;;;2.37;;
3343;SDS011;1685;53.104;8.228;2023-07-13T09:20:44;9.13;;;4.00;;
3343;SDS011;1685;53.104;8.228;2023-07-13T09:23:16;3.53;;;1.90;;
3343;SDS011;1685;53.104;8.228;2023-07-13T09:25:46;4.97;;;2.37;;
3343;SDS011;1685;53.104;8.228;2023-07-13T09:28:20;5.73;;;2.30;;
3343;SDS011;1685;53.104;8.228;2023-07-13T09:30:51;3.30;;;2.10;;
3343;SDS011;1685;53.104;8.228;2023-07-13T09:33:23;3.33;;;1.80;;
3343;SDS011;1685;53.104;8.228;2023-07-13T09:35:54;9.40;;;3.03;;
3343;SDS011;1685;53.104;8.228;2023-07-13T09:38:22;2.33;;;2.00;;
3343;SDS011;1685;53.104;8.228;2023-07-13T09:40:56;7.17;;;3.60;;
3343;SDS011;1685;53.104;8.228;2023-07-13T09:43:29;5.40;;;2.43;;
3343;SDS011;1685;53.104;8.228;2023-07-13T09:45:56;7.33;;;2.17;;
3343;SDS011;1685;53.104;8.228;2023-07-13T09:48:26;10.23;;;2.40;;
3343;SDS011;1685;53.104;8.228;2023-07-13T09:51:04;11.30;;;2.50;;
3343;SDS011;1685;53.104;8.228;2023-07-13T09:53:38;11.03;;;2.70;;
3343;SDS011;1685;53.104;8.228;2023-07-13T09:56:11;11.10;;;2.47;;
3343;SDS011;1685;53.104;8.228;2023-07-13T09:58:45;2.67;;;2.20;;
3343;SDS011;1685;53.104;8.228;2023-07-13T10:01:12;4.57;;;2.20;;
3343;SDS011;1685;53.104;8.228;2023-07-13T10:03:51;8.60;;;2.40;;
3343;SDS011;1685;53.104;8.228;2023-07-13T10:06:19;6.93;;;3.20;;
3343;SDS011;1685;53.104;8.228;2023-07-13T10:08:48;5.10;;;2.83;;
3343;SDS011;1685;53.104;8.228;2023-07-13T10:11:17;8.50;;;2.73;;
3343;SDS011;1685;53.104;8.228;2023-07-13T10:13:48;5.23;;;2.63;;
3343;SDS011;1685;53.104;8.228;2023-07-13T10:16:17;4.47;;;2.90;;
3343;SDS011;1685;53.104;8.228;2023-07-13T10:18:48;4.30;;;2.70;;
3343;SDS011;1685;53.104;8.228;2023-07-13T10:21:16;2.80;;;2.43;;
3343;SDS011;1685;53.104;8.228;2023-07-13T10:23:47;4.13;;;2.20;;
3343;SDS011;1685;53.104;8.228;2023-07-13T10:26:18;4.77;;;2.17;;
3343;SDS011;1685;53.104;8.228;2023-07-13T10:28:49;2.83;;;2.10;;
3343;SDS011;1685;53.104;8.228;2023-07-13T10:31:20;6.57;;;2.10;;
3343;SDS011;1685;53.104;8.228;2023-07-13T10:33:49;2.97;;;2.40;;
3343;SDS011;1685;53.104;8.228;2023-07-13T10:36:27;2.00;;;1.90;;
3343;SDS011;1685;53.104;8.228;2023-07-13T10:38:58;5.80;;;1.90;;
3343;SDS011;1685;53.104;8.228;2023-07-13T10:41:29;3.90;;;2.60;;
3343;SDS011;1685;53.104;8.228;2023-07-13T10:44:00;2.20;;;2.00;;
3343;SDS011;1685;53.104;8.228;2023-07-13T10:46:28;5.47;;;2.70;;
3343;SDS011;1685;53.104;8.228;2023-07-13T10:48:58;4.20;;;2.70;;
3343;SDS011;1685;53.104;8.228;2023-07-13T10:51:29;5.30;;;2.80;;
3343;SDS011;1685;53.104;8.228;2023-07-13T10:57:06;7.63;;;3.00;;
3343;SDS011;1685;53.104;8.228;2023-07-13T10:59:41;4.43;;;2.13;;
3343;SDS011;1685;53.104;8.228;2023-07-13T11:02:13;1.93;;;1.57;;
3343;SDS011;1685;53.104;8.228;2023-07-13T11:04:50;5.10;;;1.87;;
3343;SDS011;1685;53.104;8.228;2023-07-13T11:07:20;3.50;;;2.20;;
3343;SDS011;1685;53.104;8.228;2023-07-13T11:09:49;3.63;;;2.30;;
3343;SDS011;1685;53.104;8.228;2023-07-13T11:12:26;2.13;;;1.90;;
3343;SDS011;1685;53.104;8.228;2023-07-13T11:15:10;3.20;;;2.03;;
3343;SDS011;1685;53.104;8.228;2023-07-13T11:17:47;3.87;;;2.10;;
3343;SDS011;1685;53.104;8.228;2023-07-13T11:23:21;2.20;;;2.00;;
3343;SDS011;1685;53.104;8.228;2023-07-13T11:25:56;2.93;;;2.40;;
3343;SDS011;1685;53.104;8.228;2023-07-13T11:28:25;3.60;;;2.07;;
3343;SDS011;1685;53.104;8.228;2023-07-13T11:31:13;2.80;;;2.43;;
3343;SDS011;1685;53.104;8.228;2023-07-13T11:33:48;5.70;;;2.83;;
3343;SDS011;1685;53.104;8.228;2023-07-13T11:36:28;2.87;;;2.67;;
3343;SDS011;1685;53.104;8.228;2023-07-13T11:39:05;2.77;;;2.43;;
3343;SDS011;1685;53.104;8.228;2023-07-13T11:41:43;5.20;;;2.33;;
3343;SDS011;1685;53.104;8.228;2023-07-13T11:44:12;4.00;;;2.50;;
3343;SDS011;1685;53.104;8.228;2023-07-13T11:46:44;12.60;;;2.23;;
3343;SDS011;1685;53.104;8.228;2023-07-13T11:49:13;10.13;;;2.70;;
3343;SDS011;1685;53.104;8.228;2023-07-13T11:51:43;3.23;;;2.27;;
3343;SDS011;1685;53.104;8.228;2023-07-13T11:54:15;2.67;;;2.40;;
3343;SDS011;1685;53.104;8.228;2023-07-13T11:56:49;2.57;;;2.40;;
3343;SDS011;1685;53.104;8.228;2023-07-13T11:59:17;2.67;;;2.47;;
3343;SDS011;1685;53.104;8.228;2023-07-13T12:01:45;2.33;;;2.13;;
3343;SDS011;1685;53.104;8.228;2023-07-13T12:04:19;3.10;;;2.80;;
3343;SDS011;1685;53.104;8.228;2023-07-13T12:06:55;2.97;;;2.60;;
3343;SDS011;1685;53.104;8.228;2023-07-13T12:09:25;6.90;;;2.90;;
3343;SDS011;1685;53.104;8.228;2023-07-13T12:11:54;3.80;;;2.23;;
3343;SDS011;1685;53.104;8.228;2023-07-13T12:14:23;3.07;;;2.83;;
3343;SDS011;1685;53.104;8.228;2023-07-13T12:16:51;4.10;;;2.30;;
3343;SDS011;1685;53.104;8.228;2023-07-13T12:19:20;2.27;;;2.17;;
3343;SDS011;1685;53.104;8.228;2023-07-13T12:21:48;2.30;;;2.10;;
3343;SDS011;1685;53.104;8.228;2023-07-13T12:24:18;2.57;;;2.27;;
3343;SDS011;1685;53.104;8.228;2023-07-13T12:26:50;2.40;;;2.20;;
3343;SDS011;1685;53.104;8.228;2023-07-13T12:29:18;2.80;;;2.40;;
3343;SDS011;1685;53.104;8.228;2023-07-13T12:31:46;2.03;;;1.93;;
3343;SDS011;1685;53.104;8.228;2023-07-13T12:34:14;2.00;;;1.90;;
3343;SDS011;1685;53.104;8.228;2023-07-13T12:36:45;1.73;;;1.63;;
3343;SDS011;1685;53.104;8.228;2023-07-13T12:39:15;1.83;;;1.73;;
3343;SDS011;1685;53.104;8.228;2023-07-13T12:41:46;2.10;;;2.00;;
3343;SDS011;1685;53.104;8.228;2023-07-13T12:44:14;5.73;;;1.80;;
3343;SDS011;1685;53.104;8.228;2023-07-13T12:46:53;2.43;;;2.23;;
3343;SDS011;1685;53.104;8.228;2023-07-13T12:49:24;4.00;;;2.03;;
3343;SDS011;1685;53.104;8.228;2023-07-13T12:51:57;2.27;;;2.17;;
3343;SDS011;1685;53.104;8.228;2023-07-13T12:54:26;2.07;;;1.80;;
3343;SDS011;1685;53.104;8.228;2023-07-13T12:56:54;1.70;;;1.60;;
3343;SDS011;1685;53.104;8.228;2023-07-13T12:59:23;2.33;;;1.67;;
3343;SDS011;1685;53.104;8.228;2023-07-13T13:01:55;2.50;;;1.73;;
3343;SDS011;1685;53.104;8.228;2023-07-13T13:04:22;3.70;;;2.33;;
3343;SDS011;1685;53.104;8.228;2023-07-13T13:07:03;1.70;;;1.60;;
3343;SDS011;1685;53.104;8.228;2023-07-13T13:09:33;2.53;;;1.93;;
3343;SDS011;1685;53.104;8.228;2023-07-13T13:11:59;2.83;;;2.50;;
3343;SDS011;1685;53.104;8.228;2023-07-13T13:14:26;7.00;;;1.80;;
3343;SDS011;1685;53.104;8.228;2023-07-13T13:16:53;3.10;;;1.80;;
3343;SDS011;1685;53.104;8.228;2023-07-13T13:19:22;1.87;;;1.73;;
3343;SDS011;1685;53.104;8.228;2023-07-13T13:21:53;1.67;;;1.57;;
3343;SDS011;1685;53.104;8.228;2023-07-13T13:24:22;2.20;;;1.60;;
3343;SDS011;1685;53.104;8.228;2023-07-13T13:26:51;4.40;;;1.90;;
3343;SDS011;1685;53.104;8.228;2023-07-13T13:29:23;2.23;;;1.90;;
3343;SDS011;1685;53.104;8.228;2023-07-13T13:31:50;4.13;;;2.47;;
3343;SDS011;1685;53.104;8.228;2023-07-13T13:34:18;2.30;;;2.10;;
3343;SDS011;1685;53.104;8.228;2023-07-13T13:36:48;2.73;;;2.53;;
3343;SDS011;1685;53.104;8.228;2023-07-13T13:39:18;2.23;;;2.00;;
3343;SDS011;1685;53.104;8.228;2023-07-13T13:41:47;3.27;;;2.20;;
3343;SDS011;1685;53.104;8.228;2023-07-13T13:44:16;3.77;;;2.80;;
3343;SDS011;1685;53.104;8.228;2023-07-13T13:46:44;2.70;;;2.50;;
3343;SDS011;1685;53.104;8.228;2023-07-13T13:49:14;6.57;;;3.07;;
3343;SDS011;1685;53.104;8.228;2023-07-13T13:51:42;2.43;;;2.30;;
3343;SDS011;1685;53.104;8.228;2023-07-13T13:54:10;5.70;;;3.03;;
3343;SDS011;1685;53.104;8.228;2023-07-13T13:56:41;5.60;;;2.30;;
3343;SDS011;1685;53.104;8.228;2023-07-13T13:59:08;3.53;;;2.30;;
3343;SDS011;1685;53.104;8.228;2023-07-13T14:01:36;2.60;;;2.40;;
3343;SDS011;1685;53.104;8.228;2023-07-13T14:04:04;5.13;;;2.97;;
3343;SDS011;1685;53.104;8.228;2023-07-13T14:06:32;3.00;;;2.70;;
3343;SDS011;1685;53.104;8.228;2023-07-13T14:08:59;4.00;;;3.67;;
3343;SDS011;1685;53.104;8.228;2023-07-13T14:11:27;3.33;;;3.00;;
3343;SDS011;1685;53.104;8.228;2023-07-13T14:13:55;3.33;;;3.07;;
3343;SDS011;1685;53.104;8.228;2023-07-13T14:16:25;3.23;;;2.70;;
3343;SDS011;1685;53.104;8.228;2023-07-13T14:18:56;4.30;;;3.00;;
3343;SDS011;1685;53.104;8.228;2023-07-13T14:21:25;4.17;;;2.67;;
3343;SDS011;1685;53.104;8.228;2023-07-13T14:23:53;4.50;;;2.70;;
3343;SDS011;1685;53.104;8.228;2023-07-13T14:26:20;3.83;;;2.70;;
3343;SDS011;1685;53.104;8.228;2023-07-13T14:28:49;4.17;;;2.20;;
3343;SDS011;1685;53.104;8.228;2023-07-13T14:31:18;2.87;;;1.60;;
3343;SDS011;1685;53.104;8.228;2023-07-13T14:33:45;8.00;;;1.70;;
3343;SDS011;1685;53.104;8.228;2023-07-13T14:36:20;6.80;;;1.80;;
3343;SDS011;1685;53.104;8.228;2023-07-13T14:38:51;3.13;;;2.00;;
3343;SDS011;1685;53.104;8.228;2023-07-13T14:41:18;4.70;;;2.30;;
3343;SDS011;1685;53.104;8.228;2023-07-13T14:43:46;9.63;;;2.20;;
3343;SDS011;1685;53.104;8.228;2023-07-13T14:46:18;2.17;;;1.97;;
3343;SDS011;1685;53.104;8.228;2023-07-13T14:48:53;4.40;;;1.93;;
3343;SDS011;1685;53.104;8.228;2023-07-13T14:51:27;7.13;;;2.20;;
3343;SDS011;1685;53.104;8.228;2023-07-13T14:53:54;4.47;;;1.73;;
3343;SDS011;1685;53.104;8.228;2023-07-13T14:56:21;5.00;;;1.80;;
3343;SDS011;1685;53.104;8.228;2023-07-13T14:58:48;9.37;;;2.23;;
3343;SDS011;1685;53.104;8.228;2023-07-13T15:01:15;2.87;;;1.73;;
3343;SDS011;1685;53.104;8.228;2023-07-13T15:03:44;2.13;;;1.93;;
3343;SDS011;1685;53.104;8.228;2023-07-13T15:06:12;3.53;;;2.20;;
3343;SDS011;1685;53.104;8.228;2023-07-13T15:08:41;5.33;;;2.40;;
3343;SDS011;1685;53.104;8.228;2023-07-13T15:11:08;2.70;;;2.50;;
3343;SDS011;1685;53.104;8.228;2023-07-13T15:13:36;3.80;;;2.47;;
3343;SDS011;1685;53.104;8.228;2023-07-13T15:16:04;5.03;;;2.30;;
3343;SDS011;1685;53.104;8.228;2023-07-13T15:18:37;7.50;;;2.83;;
3343;SDS011;1685;53.104;8.228;2023-07-13T15:21:08;8.63;;;3.50;;
3343;SDS011;1685;53.104;8.228;2023-07-13T15:23:40;6.00;;;3.80;;
3343;SDS011;1685;53.104;8.228;2023-07-13T15:26:10;4.40;;;3.10;;